createdAt,value
2019-03-10T00:00:03.112Z,4.12
2019-03-10T00:02:30.009Z,4.10
2019-03-10T00:04:56.727Z,4.05
2019-03-10T00:07:23.454Z,4.02
2019-03-10T00:09:50.244Z,3.96
2019-03-10T00:12:16.968Z,3.93
2019-03-10T00:14:43.928Z,3.87
2019-03-10T00:17:10.625Z,3.81
2019-03-10T00:19:37.337Z,3.79
2019-03-10T00:22:05.257Z,3.77
2019-03-10T00:24:31.958Z,3.69
2019-03-10T00:26:58.686Z,3.65
2019-03-10T00:29:25.538Z,3.69
2019-03-10T00:31:52.262Z,3.69
2019-03-10T00:34:18.979Z,3.66
2019-03-10T00:36:45.800Z,3.67
2019-03-10T00:39:32.714Z,3.61
2019-03-10T00:42:27.461Z,3.60
2019-03-10T00:45:32.655Z,3.55
2019-03-10T00:48:24.800Z,3.51
2019-03-10T00:51:24.606Z,3.40
2019-03-10T00:53:51.468Z,3.43
2019-03-10T00:56:18.227Z,3.43
2019-03-10T00:58:44.966Z,3.47
2019-03-10T01:01:11.844Z,3.49
2019-03-10T01:03:38.589Z,3.55
2019-03-10T01:06:05.292Z,3.57
2019-03-10T01:08:32.416Z,3.59
2019-03-10T01:10:59.158Z,3.54
2019-03-10T01:13:26.009Z,3.50
2019-03-10T01:15:54.117Z,3.50
2019-03-10T01:18:22.739Z,3.46
2019-03-10T01:20:51.681Z,3.40
2019-03-10T01:23:18.569Z,3.40
2019-03-10T01:25:45.300Z,3.33
2019-03-10T01:28:12.017Z,3.35
2019-03-10T01:31:02.540Z,3.33
2019-03-10T01:34:06.589Z,3.31
2019-03-10T01:36:36.348Z,3.30
2019-03-10T01:39:04.283Z,3.28
2019-03-10T01:41:31.001Z,3.22
2019-03-10T01:43:57.798Z,3.13
2019-03-10T01:46:24.540Z,3.12
2019-03-10T01:48:51.296Z,3.05
2019-03-10T01:51:18.110Z,3.04
2019-03-10T01:53:44.816Z,3.07
2019-03-10T01:56:11.579Z,3.05
2019-03-10T01:58:38.346Z,3.11
2019-03-10T02:01:05.090Z,3.10
2019-03-10T02:03:32.016Z,3.12
2019-03-10T02:05:58.695Z,3.12
2019-03-10T02:08:25.457Z,3.11
2019-03-10T02:10:52.240Z,3.12
2019-03-10T02:13:18.999Z,3.09
2019-03-10T02:15:45.790Z,3.09
2019-03-10T02:18:12.561Z,3.12
2019-03-10T02:20:39.310Z,3.12
2019-03-10T02:23:06.162Z,3.14
2019-03-10T02:25:32.913Z,3.11
2019-03-10T02:27:59.623Z,3.10
2019-03-10T02:30:26.520Z,3.11
2019-03-10T02:32:53.281Z,3.13
2019-03-10T02:35:20.155Z,3.09
2019-03-10T02:37:46.882Z,3.09
2019-03-10T02:40:13.678Z,3.08
2019-03-10T02:42:40.497Z,3.06
2019-03-10T02:45:09.201Z,2.99
2019-03-10T02:47:35.942Z,2.94
2019-03-10T02:50:05.256Z,2.93
2019-03-10T02:52:31.981Z,2.92
2019-03-10T02:54:58.701Z,2.90
2019-03-10T02:57:25.469Z,2.85
2019-03-10T02:59:52.185Z,2.84
2019-03-10T03:02:18.966Z,2.81
2019-03-10T03:04:45.831Z,2.76
2019-03-10T03:07:12.569Z,2.72
2019-03-10T03:09:39.320Z,2.64
2019-03-10T03:12:06.095Z,2.68
2019-03-10T03:14:32.804Z,2.64
2019-03-10T03:16:59.849Z,2.61
2019-03-10T03:19:26.729Z,2.59
2019-03-10T03:21:53.443Z,2.54
2019-03-10T03:24:20.192Z,2.52
2019-03-10T03:26:46.986Z,2.47
2019-03-10T03:29:13.729Z,2.45
2019-03-10T03:31:40.531Z,2.47
2019-03-10T03:34:07.308Z,2.45
2019-03-10T03:36:35.165Z,2.44
2019-03-10T03:39:18.815Z,2.46
2019-03-10T03:41:45.557Z,2.49
2019-03-10T03:44:12.424Z,2.45
2019-03-10T03:46:39.131Z,2.45
2019-03-10T03:49:05.855Z,2.44
2019-03-10T03:51:32.642Z,2.45
2019-03-10T03:53:59.394Z,2.40
2019-03-10T03:56:26.178Z,2.41
2019-03-10T03:58:52.917Z,2.29
2019-03-10T04:01:19.698Z,2.31
2019-03-10T04:03:46.390Z,2.34
2019-03-10T04:06:13.271Z,2.33
2019-03-10T04:08:39.987Z,2.32
2019-03-10T04:11:06.721Z,2.34
2019-03-10T04:13:33.607Z,2.32
2019-03-10T04:16:00.332Z,2.35
2019-03-10T04:18:27.109Z,2.36
2019-03-10T04:20:53.899Z,2.36
2019-03-10T04:23:20.605Z,2.36
2019-03-10T04:25:47.347Z,2.38
2019-03-10T04:28:14.109Z,2.33
2019-03-10T04:30:40.843Z,2.26
2019-03-10T04:33:07.621Z,2.20
2019-03-10T04:35:34.469Z,2.10
2019-03-10T04:38:01.200Z,2.08
2019-03-10T04:40:28.092Z,2.12
2019-03-10T04:42:54.821Z,2.10
2019-03-10T04:45:21.531Z,2.07
2019-03-10T04:47:48.355Z,2.07
2019-03-10T04:50:16.417Z,1.92
2019-03-10T04:52:43.403Z,1.90
2019-03-10T04:55:10.205Z,1.89
2019-03-10T04:57:36.933Z,1.88
2019-03-10T05:00:06.358Z,1.88
2019-03-10T05:02:33.553Z,1.84
2019-03-10T05:05:00.474Z,1.87
2019-03-10T05:07:27.610Z,1.82
2019-03-10T05:09:54.337Z,1.83
2019-03-10T05:12:21.080Z,1.70
2019-03-10T05:14:47.987Z,1.73
2019-03-10T05:17:14.741Z,1.75
2019-03-10T05:19:41.614Z,1.73
2019-03-10T05:22:08.499Z,1.74
2019-03-10T05:24:35.285Z,1.72
2019-03-10T05:27:04.855Z,1.65
2019-03-10T05:29:31.710Z,1.67
2019-03-10T05:31:58.440Z,1.66
2019-03-10T05:34:25.177Z,1.63
2019-03-10T05:36:51.996Z,1.66
2019-03-10T05:39:18.718Z,1.64
2019-03-10T05:41:45.430Z,1.64
2019-03-10T05:44:12.227Z,1.62
2019-03-10T05:46:38.947Z,1.62
2019-03-10T05:49:05.802Z,1.67
2019-03-10T05:51:32.534Z,1.71
2019-03-10T05:53:59.273Z,1.68
2019-03-10T05:56:26.069Z,1.69
2019-03-10T05:58:52.791Z,1.68
2019-03-10T06:01:19.728Z,1.64
2019-03-10T06:03:46.514Z,1.69
2019-03-10T06:06:13.239Z,1.67
2019-03-10T06:08:40.105Z,1.64
2019-03-10T06:11:06.851Z,1.62
2019-03-10T06:13:33.579Z,1.62
2019-03-10T06:16:00.377Z,1.64
2019-03-10T06:18:27.123Z,1.68
2019-03-10T06:20:57.260Z,1.64
2019-03-10T06:23:24.122Z,1.64
2019-03-10T06:25:50.879Z,1.62
2019-03-10T06:28:17.624Z,1.64
2019-03-10T06:30:44.407Z,1.58
2019-03-10T06:33:11.159Z,1.63
2019-03-10T06:35:38.019Z,1.67
2019-03-10T06:38:04.801Z,1.69
2019-03-10T06:40:32.560Z,1.70
2019-03-10T06:42:59.573Z,1.70
2019-03-10T06:45:26.454Z,1.55
2019-03-10T06:47:53.181Z,1.63
2019-03-10T06:50:19.981Z,1.68
2019-03-10T06:52:46.700Z,1.78
2019-03-10T06:55:13.417Z,1.84
2019-03-10T06:57:40.209Z,1.99
2019-03-10T07:00:11.257Z,2.00
2019-03-10T07:02:39.161Z,2.14
2019-03-10T07:05:09.017Z,2.24
2019-03-10T07:07:35.779Z,2.31
2019-03-10T07:10:09.770Z,2.39
2019-03-10T07:12:36.492Z,2.52
2019-03-10T07:15:06.261Z,2.59
2019-03-10T07:17:33.157Z,2.70
2019-03-10T07:19:59.877Z,2.81
2019-03-10T07:22:26.695Z,2.92
2019-03-10T07:24:53.509Z,3.03
2019-03-10T07:27:20.266Z,3.07
2019-03-10T07:29:46.993Z,3.19
2019-03-10T07:32:13.794Z,3.32
2019-03-10T07:34:40.564Z,3.40
2019-03-10T07:37:07.267Z,3.52
2019-03-10T07:39:34.041Z,3.60
2019-03-10T07:42:00.776Z,3.69
2019-03-10T07:44:27.632Z,3.76
2019-03-10T07:46:54.340Z,3.85
2019-03-10T07:49:21.103Z,3.93
2019-03-10T07:51:48.013Z,4.01
2019-03-10T07:54:14.732Z,4.14
2019-03-10T07:56:41.462Z,4.32
2019-03-10T07:59:08.290Z,4.48
2019-03-10T08:01:35.055Z,4.64
2019-03-10T08:04:01.804Z,4.82
2019-03-10T08:06:28.595Z,4.91
2019-03-10T08:08:55.332Z,5.04
2019-03-10T08:11:22.085Z,5.10
2019-03-10T08:13:48.812Z,5.24
2019-03-10T08:16:15.629Z,5.33
2019-03-10T08:18:42.375Z,5.43
2019-03-10T08:21:09.190Z,5.45
2019-03-10T08:23:35.947Z,5.57
2019-03-10T08:26:02.866Z,5.59
2019-03-10T08:28:29.594Z,5.63
2019-03-10T08:30:56.306Z,5.71
2019-03-10T08:33:23.119Z,5.76
2019-03-10T08:35:49.851Z,5.84
2019-03-10T08:38:16.582Z,5.99
2019-03-10T08:40:43.408Z,6.03
2019-03-10T08:43:10.125Z,5.93
2019-03-10T08:45:36.870Z,5.94
2019-03-10T08:48:03.751Z,5.79
2019-03-10T08:50:30.513Z,5.93
2019-03-10T08:52:57.321Z,5.88
2019-03-10T08:55:24.177Z,5.89
2019-03-10T08:57:50.901Z,6.00
2019-03-10T09:00:17.719Z,6.04
2019-03-10T09:02:44.718Z,6.24
2019-03-10T09:05:11.565Z,6.30
2019-03-10T09:07:38.315Z,6.38
2019-03-10T09:10:08.708Z,6.39
2019-03-10T09:12:35.957Z,6.40
2019-03-10T09:15:05.185Z,6.32
2019-03-10T09:17:31.994Z,6.42
2019-03-10T09:19:58.735Z,6.51
2019-03-10T09:22:25.475Z,6.57
2019-03-10T09:24:52.394Z,6.44
2019-03-10T09:27:19.150Z,6.36
2019-03-10T09:29:45.906Z,6.32
2019-03-10T09:32:12.792Z,6.42
2019-03-10T09:34:39.580Z,6.59
2019-03-10T09:37:06.328Z,6.68
2019-03-10T09:39:33.100Z,6.73
2019-03-10T09:42:08.623Z,6.82
2019-03-10T09:44:35.574Z,6.81
2019-03-10T09:47:02.320Z,6.79
2019-03-10T09:49:29.211Z,6.85
2019-03-10T09:51:56.405Z,6.88
2019-03-10T09:54:23.487Z,7.00
2019-03-10T09:56:50.242Z,7.07
2019-03-10T09:59:17.004Z,7.00
2019-03-10T10:01:43.716Z,6.96
2019-03-10T10:04:10.618Z,7.09
2019-03-10T10:06:37.323Z,7.13
2019-03-10T10:09:05.946Z,7.17
2019-03-10T10:11:32.729Z,7.31
2019-03-10T10:13:59.471Z,7.39
2019-03-10T10:16:26.281Z,7.45
2019-03-10T10:18:53.039Z,7.58
2019-03-10T10:21:19.799Z,7.64
2019-03-10T10:23:46.658Z,7.66
2019-03-10T10:26:13.449Z,7.63
2019-03-10T10:28:40.326Z,7.54
2019-03-10T10:31:07.091Z,7.41
2019-03-10T10:33:33.836Z,7.54
2019-03-10T10:36:00.605Z,7.63
2019-03-10T10:38:27.404Z,7.66
2019-03-10T10:40:54.299Z,7.70
2019-03-10T10:43:21.031Z,7.70
2019-03-10T10:45:47.749Z,7.79
2019-03-10T10:48:14.568Z,7.87
2019-03-10T10:50:41.465Z,7.79
2019-03-10T10:53:08.277Z,8.00
2019-03-10T10:55:35.155Z,8.06
2019-03-10T10:58:02.013Z,8.13
2019-03-10T11:00:28.775Z,8.16
2019-03-10T11:02:55.502Z,8.23
2019-03-10T11:05:22.318Z,8.36
2019-03-10T11:07:49.068Z,8.40
2019-03-10T11:10:15.800Z,8.63
2019-03-10T11:12:42.596Z,8.90
2019-03-10T11:15:09.450Z,9.30
2019-03-10T11:17:36.189Z,9.92
2019-03-10T11:20:07.148Z,10.42
2019-03-10T11:22:33.914Z,10.37
2019-03-10T11:25:00.813Z,10.36
2019-03-10T11:27:27.695Z,10.51
2019-03-10T11:29:54.453Z,10.76
2019-03-10T11:32:21.172Z,11.06
2019-03-10T11:34:48.000Z,11.31
2019-03-10T11:37:14.734Z,11.17
2019-03-10T11:39:41.478Z,11.32
2019-03-10T11:42:08.310Z,11.85
2019-03-10T11:44:35.078Z,12.31
2019-03-10T11:47:01.818Z,12.21
2019-03-10T11:49:28.660Z,12.06
2019-03-10T11:51:55.400Z,11.59
2019-03-10T11:54:22.143Z,11.31
2019-03-10T11:56:49.025Z,11.09
2019-03-10T11:59:15.785Z,10.89
2019-03-10T12:01:42.517Z,10.69
2019-03-10T12:04:10.484Z,10.84
2019-03-10T12:06:37.362Z,11.15
2019-03-10T12:09:05.893Z,11.36
2019-03-10T12:11:32.647Z,11.54
2019-03-10T12:13:59.382Z,11.58
2019-03-10T12:16:26.171Z,11.53
2019-03-10T12:18:52.899Z,11.61
2019-03-10T12:21:19.653Z,11.87
2019-03-10T12:23:46.529Z,11.91
2019-03-10T12:26:13.434Z,12.00
2019-03-10T12:28:41.625Z,11.94
2019-03-10T12:31:08.661Z,11.95
2019-03-10T12:33:35.370Z,11.73
2019-03-10T12:36:02.127Z,11.57
2019-03-10T12:38:29.092Z,11.30
2019-03-10T12:40:55.882Z,11.03
2019-03-10T12:43:22.633Z,11.06
2019-03-10T12:45:49.446Z,11.13
2019-03-10T12:48:16.204Z,11.17
2019-03-10T12:50:42.933Z,11.23
2019-03-10T12:53:09.741Z,11.36
2019-03-10T12:55:36.522Z,11.48
2019-03-10T12:58:03.270Z,11.48
2019-03-10T13:00:30.177Z,11.78
2019-03-10T13:02:56.908Z,12.21
2019-03-10T13:05:23.832Z,12.46
2019-03-10T13:07:50.589Z,12.60
2019-03-10T13:10:17.317Z,12.76
2019-03-10T13:12:44.184Z,13.02
2019-03-10T13:15:11.744Z,13.26
2019-03-10T13:17:38.498Z,13.40
2019-03-10T13:20:09.309Z,13.65
2019-03-10T13:22:36.056Z,13.70
2019-03-10T13:25:09.068Z,13.68
2019-03-10T13:27:35.922Z,13.72
2019-03-10T13:30:12.277Z,13.77
2019-03-10T13:32:39.027Z,13.69
2019-03-10T13:35:05.870Z,13.58
2019-03-10T13:37:32.870Z,13.56
2019-03-10T13:39:59.594Z,13.43
2019-03-10T13:42:26.336Z,13.36
2019-03-10T13:44:53.077Z,13.29
2019-03-10T13:47:19.867Z,13.39
2019-03-10T13:49:46.776Z,13.23
2019-03-10T13:52:13.507Z,13.22
2019-03-10T13:54:40.262Z,13.09
2019-03-10T13:57:07.043Z,12.93
2019-03-10T13:59:33.800Z,12.78
2019-03-10T14:02:00.703Z,12.54
2019-03-10T14:04:27.456Z,12.42
2019-03-10T14:06:54.218Z,12.21
2019-03-10T14:09:21.101Z,11.93
2019-03-10T14:11:48.045Z,11.75
2019-03-10T14:14:14.793Z,11.58
2019-03-10T14:16:41.863Z,11.61
2019-03-10T14:19:08.763Z,11.56
2019-03-10T14:21:35.788Z,11.45
2019-03-10T14:24:03.051Z,11.35
2019-03-10T14:26:29.801Z,11.17
2019-03-10T14:28:56.866Z,11.02
2019-03-10T14:31:23.703Z,11.10
2019-03-10T14:33:50.857Z,11.16
2019-03-10T14:36:17.756Z,11.14
2019-03-10T14:38:44.650Z,11.08
2019-03-10T14:41:11.465Z,11.00
2019-03-10T14:43:38.380Z,10.91
2019-03-10T14:46:05.236Z,10.85
2019-03-10T14:48:32.245Z,10.67
2019-03-10T14:50:59.250Z,10.66
2019-03-10T14:53:26.043Z,10.68
2019-03-10T14:55:52.816Z,10.78
2019-03-10T14:58:19.724Z,10.93
2019-03-10T15:00:46.494Z,11.05
2019-03-10T15:03:13.248Z,11.20
2019-03-10T15:05:40.074Z,11.26
2019-03-10T15:08:06.916Z,11.33
2019-03-10T15:10:33.932Z,11.36
2019-03-10T15:13:00.812Z,11.33
2019-03-10T15:15:27.546Z,11.18
2019-03-10T15:17:54.317Z,11.02
2019-03-10T15:20:21.822Z,10.68
2019-03-10T15:22:48.734Z,10.54
2019-03-10T15:25:19.898Z,10.47
2019-03-10T15:27:46.769Z,10.28
2019-03-10T15:30:19.421Z,10.15
2019-03-10T15:32:46.279Z,9.99
2019-03-10T15:35:13.329Z,9.90
2019-03-10T15:37:40.081Z,9.85
2019-03-10T15:40:11.786Z,9.75
2019-03-10T15:42:38.536Z,9.66
2019-03-10T15:45:09.811Z,9.61
2019-03-10T15:47:36.687Z,9.46
2019-03-10T15:50:11.632Z,9.39
2019-03-10T15:52:38.374Z,9.33
2019-03-10T15:55:05.293Z,9.22
2019-03-10T15:57:32.034Z,9.15
2019-03-10T15:59:58.813Z,9.13
2019-03-10T16:02:25.650Z,9.10
2019-03-10T16:04:52.556Z,9.06
2019-03-10T16:07:20.438Z,9.01
2019-03-10T16:09:47.959Z,9.01
2019-03-10T16:12:15.064Z,8.98
2019-03-10T16:14:42.148Z,8.93
2019-03-10T16:17:09.230Z,8.89
2019-03-10T16:19:36.408Z,8.85
2019-03-10T16:22:03.823Z,8.76
2019-03-10T16:24:30.864Z,8.70
2019-03-10T16:26:58.007Z,8.67
2019-03-10T16:29:25.302Z,8.61
2019-03-10T16:31:52.553Z,8.65
2019-03-10T16:34:19.755Z,8.67
2019-03-10T16:36:47.022Z,8.61
2019-03-10T16:39:14.231Z,8.52
2019-03-10T16:41:41.280Z,8.53
2019-03-10T16:44:08.477Z,8.54
2019-03-10T16:46:35.660Z,8.55
2019-03-10T16:49:02.863Z,8.51
2019-03-10T16:51:29.882Z,8.51
2019-03-10T16:53:57.097Z,8.48
2019-03-10T16:56:24.316Z,8.46
2019-03-10T16:58:51.508Z,8.43
2019-03-10T17:01:18.703Z,8.37
2019-03-10T17:03:45.989Z,8.28
2019-03-10T17:06:13.179Z,8.22
2019-03-10T17:08:40.304Z,8.20
2019-03-10T17:11:07.564Z,8.15
2019-03-10T17:13:34.743Z,8.10
2019-03-10T17:16:01.902Z,8.03
2019-03-10T17:18:29.148Z,8.03
2019-03-10T17:20:56.284Z,8.06
2019-03-10T17:23:23.326Z,8.03
2019-03-10T17:25:50.414Z,8.01
2019-03-10T17:28:17.554Z,7.91
2019-03-10T17:30:44.823Z,7.83
2019-03-10T17:33:12.007Z,7.87
2019-03-10T17:35:39.441Z,7.82
2019-03-10T17:38:06.421Z,7.84
2019-03-10T17:40:33.578Z,7.80
2019-03-10T17:43:00.707Z,7.74
2019-03-10T17:45:27.977Z,7.76
2019-03-10T17:47:55.122Z,7.78
2019-03-10T17:50:22.571Z,7.65
2019-03-10T17:52:49.686Z,7.75
2019-03-10T17:55:22.017Z,7.75
2019-03-10T17:57:49.562Z,7.58
2019-03-10T18:00:18.182Z,7.60
2019-03-10T18:02:45.901Z,7.65
2019-03-10T18:05:12.863Z,7.63
2019-03-10T18:07:39.587Z,7.61
2019-03-10T18:10:16.463Z,7.58
2019-03-10T18:12:43.365Z,7.56
2019-03-10T18:15:13.246Z,7.56
2019-03-10T18:17:40.165Z,7.54
2019-03-10T18:20:17.524Z,7.51
2019-03-10T18:22:44.462Z,7.49
2019-03-10T18:25:12.159Z,7.45
2019-03-10T18:27:39.008Z,7.40
2019-03-10T18:30:14.266Z,7.39
2019-03-10T18:32:44.615Z,7.30
2019-03-10T18:35:11.455Z,7.29
2019-03-10T18:37:38.378Z,7.28
2019-03-10T18:40:23.085Z,7.30
2019-03-10T18:42:49.910Z,7.28
2019-03-10T18:45:18.487Z,7.27
2019-03-10T18:47:45.337Z,7.21
2019-03-10T18:50:15.540Z,7.15
2019-03-10T18:52:42.809Z,7.19
2019-03-10T18:55:12.809Z,7.19
2019-03-10T18:57:39.733Z,7.18
2019-03-10T19:00:26.894Z,7.16
2019-03-10T19:02:53.772Z,7.15
2019-03-10T19:05:20.951Z,7.14
2019-03-10T19:07:47.781Z,7.13
2019-03-10T19:10:14.535Z,7.14
2019-03-10T19:12:41.416Z,7.14
2019-03-10T19:15:15.616Z,7.17
2019-03-10T19:17:42.487Z,7.18
2019-03-10T19:20:12.441Z,7.15
2019-03-10T19:22:39.341Z,7.16
2019-03-10T19:25:12.179Z,7.15
2019-03-10T19:27:38.949Z,7.10
2019-03-10T19:30:23.524Z,7.10
2019-03-10T19:32:50.685Z,7.15
2019-03-10T19:35:17.671Z,7.09
2019-03-10T19:37:44.580Z,7.07
2019-03-10T19:40:19.669Z,7.07
2019-03-10T19:42:46.438Z,7.05
2019-03-10T19:45:21.111Z,7.04
2019-03-10T19:47:48.180Z,7.03
2019-03-10T19:50:26.874Z,7.01
2019-03-10T19:52:52.749Z,7.00
2019-03-10T19:55:21.744Z,6.99
2019-03-10T19:57:48.539Z,6.98
2019-03-10T20:00:20.693Z,6.96
2019-03-10T20:02:47.549Z,6.90
2019-03-10T20:05:14.546Z,6.74
2019-03-10T20:07:42.037Z,6.69
2019-03-10T20:10:16.831Z,6.64
2019-03-10T20:12:43.520Z,6.53
2019-03-10T20:15:14.247Z,6.45
2019-03-10T20:17:41.031Z,6.37
2019-03-10T20:20:14.891Z,6.38
2019-03-10T20:22:41.812Z,6.38
2019-03-10T20:25:11.569Z,6.35
2019-03-10T20:27:38.394Z,6.28
2019-03-10T20:30:16.887Z,6.23
2019-03-10T20:32:43.654Z,6.22
2019-03-10T20:35:10.556Z,6.15
2019-03-10T20:37:37.332Z,6.19
2019-03-10T20:40:16.809Z,6.22
2019-03-10T20:42:43.645Z,6.22
2019-03-10T20:45:10.688Z,6.13
2019-03-10T20:47:37.392Z,6.10
2019-03-10T20:50:14.795Z,6.09
2019-03-10T20:52:41.499Z,6.02
2019-03-10T20:55:10.306Z,5.94
2019-03-10T20:57:37.083Z,5.92
2019-03-10T21:00:17.389Z,5.89
2019-03-10T21:02:44.337Z,5.87
2019-03-10T21:05:11.293Z,5.92
2019-03-10T21:07:38.078Z,5.82
2019-03-10T21:10:13.145Z,5.81
2019-03-10T21:12:42.739Z,5.75
2019-03-10T21:15:17.569Z,5.62
2019-03-10T21:17:44.526Z,5.59
2019-03-10T21:20:15.167Z,5.56
2019-03-10T21:22:41.999Z,5.56
2019-03-10T21:25:15.753Z,5.49
2019-03-10T21:27:42.902Z,5.44
2019-03-10T21:30:14.006Z,5.39
2019-03-10T21:32:40.757Z,5.38
2019-03-10T21:35:17.173Z,5.32
2019-03-10T21:37:36.252Z,5.31
2019-03-10T21:40:11.553Z,5.24
2019-03-10T21:42:38.256Z,5.31
2019-03-10T21:45:07.964Z,5.27
2019-03-10T21:47:34.735Z,5.25
2019-03-10T21:50:01.759Z,5.23
2019-03-10T21:52:28.484Z,5.16
2019-03-10T21:54:55.376Z,5.10
2019-03-10T21:57:22.113Z,5.02
2019-03-10T21:59:48.829Z,4.98
2019-03-10T22:02:15.584Z,4.95
2019-03-10T22:04:42.383Z,4.88
2019-03-10T22:07:09.225Z,4.89
2019-03-10T22:09:35.937Z,4.87
2019-03-10T22:12:02.651Z,4.85
2019-03-10T22:14:29.526Z,4.88
2019-03-10T22:16:56.290Z,4.71
2019-03-10T22:19:23.197Z,4.83
2019-03-10T22:21:50.021Z,4.89
2019-03-10T22:24:16.747Z,4.91
2019-03-10T22:26:43.473Z,4.77
2019-03-10T22:29:10.264Z,4.67
2019-03-10T22:31:36.981Z,4.68
2019-03-10T22:34:03.713Z,4.58
2019-03-10T22:36:30.631Z,4.58
2019-03-10T22:38:57.392Z,4.64
2019-03-10T22:41:24.093Z,4.63
2019-03-10T22:43:50.955Z,4.59
2019-03-10T22:46:17.701Z,4.54
2019-03-10T22:48:44.421Z,4.37
2019-03-10T22:51:11.162Z,4.47
2019-03-10T22:53:37.902Z,4.48
2019-03-10T22:56:04.801Z,4.44
2019-03-10T22:58:31.511Z,4.43
2019-03-10T23:00:58.249Z,4.27
2019-03-10T23:03:25.106Z,4.30
2019-03-10T23:05:51.861Z,4.26
2019-03-10T23:08:18.578Z,4.20
2019-03-10T23:10:45.405Z,4.15
2019-03-10T23:13:12.147Z,4.14
2019-03-10T23:15:38.889Z,4.09
2019-03-10T23:18:05.679Z,4.08
2019-03-10T23:20:32.420Z,4.04
2019-03-10T23:22:59.142Z,3.95
2019-03-10T23:25:25.939Z,3.94
2019-03-10T23:27:52.741Z,3.93
2019-03-10T23:30:19.548Z,3.86
2019-03-10T23:32:46.291Z,3.94
2019-03-10T23:35:13.107Z,3.97
2019-03-10T23:37:40.032Z,3.93
2019-03-10T23:40:13.602Z,3.93
2019-03-10T23:42:40.436Z,3.91
2019-03-10T23:45:14.158Z,3.91
2019-03-10T23:47:40.899Z,3.91
2019-03-10T23:50:16.245Z,3.79
2019-03-10T23:52:42.985Z,3.85
2019-03-10T23:55:11.651Z,3.82
2019-03-10T23:57:38.543Z,3.77
